Terminal Aerodrome Forecast
Issued by NWS Hastings, NE

Home | Current Version | Previous Version | Text Only | Print | Product List | Glossary On
Versions: 1 2 3 4 5 6 7 8 9 10 11 12 13
000
FTUS43 KGID 252320
TAFGRI
TAF
KGRI 252320Z 2600/2624 16015G22KT P6SM FEW100 FEW250
     FM260500 16010KT P6SM FEW100 SCT250 WS010/18040KT
     FM260800 17008KT P6SM VCTS SCT050CB BKN200 WS010/19040KT
     FM261300 07008KT P6SM VCTS SCT050CB BKN200
     FM261700 01010KT P6SM VCTS SCT050CB BKN070
     FM262000 01009KT P6SM BKN045=

USA.gov is the U.S. government's official web portal to all federal, state and local government web resources and services.